createdAt,value
2018-06-18T00:02:16.881Z,1.57
2018-06-18T00:04:50.177Z,1.30
2018-06-18T00:07:23.916Z,1.50
2018-06-18T00:09:56.897Z,1.50
2018-06-18T00:12:29.930Z,1.37
2018-06-18T00:15:03.186Z,1.80
2018-06-18T00:17:36.306Z,1.50
2018-06-18T00:20:09.352Z,1.63
2018-06-18T00:22:42.787Z,1.57
2018-06-18T00:25:15.788Z,1.60
2018-06-18T00:27:48.799Z,1.63
2018-06-18T00:30:21.869Z,1.73
2018-06-18T00:32:54.796Z,1.40
2018-06-18T00:35:27.717Z,1.60
2018-06-18T00:38:00.874Z,1.57
2018-06-18T00:40:33.783Z,1.60
2018-06-18T00:43:06.788Z,1.50
2018-06-18T00:45:39.676Z,1.50
2018-06-18T00:48:12.643Z,1.70
2018-06-18T00:50:45.551Z,1.40
2018-06-18T00:53:20.107Z,1.40
2018-06-18T00:56:02.030Z,1.37
2018-06-18T00:58:35.475Z,1.50
2018-06-18T01:01:08.459Z,1.63
2018-06-18T01:03:41.537Z,1.40
2018-06-18T01:06:14.440Z,1.63
2018-06-18T01:08:48.458Z,1.47
2018-06-18T01:11:21.477Z,1.40
2018-06-18T01:13:54.535Z,1.40
2018-06-18T01:16:27.531Z,1.70
2018-06-18T01:19:00.529Z,1.60
2018-06-18T01:21:33.549Z,1.60
2018-06-18T01:24:20.438Z,1.53
2018-06-18T01:26:53.419Z,4.33
2018-06-18T01:29:26.568Z,1.93
2018-06-18T01:31:59.469Z,1.37
2018-06-18T01:34:32.826Z,1.87
2018-06-18T01:37:05.778Z,1.50
2018-06-18T01:39:38.825Z,1.40
2018-06-18T01:42:11.812Z,1.40
2018-06-18T01:44:44.719Z,1.30
2018-06-18T01:47:17.910Z,1.17
2018-06-18T01:49:52.026Z,1.00
2018-06-18T01:52:26.260Z,1.20
2018-06-18T01:55:00.456Z,1.00
2018-06-18T01:57:36.360Z,1.10
2018-06-18T02:00:14.308Z,2.10
2018-06-18T02:02:47.490Z,2.20
2018-06-18T02:05:23.524Z,1.30
2018-06-18T02:07:58.727Z,1.40
2018-06-18T02:10:31.985Z,1.30
2018-06-18T02:13:05.024Z,1.40
2018-06-18T02:15:38.083Z,1.03
2018-06-18T02:18:11.097Z,1.30
2018-06-18T02:20:44.268Z,1.27
2018-06-18T02:23:17.435Z,0.97
2018-06-18T02:25:51.670Z,1.13
2018-06-18T02:28:28.737Z,1.30
2018-06-18T02:31:05.890Z,1.10
2018-06-18T02:33:43.144Z,1.17
2018-06-18T02:36:20.163Z,1.13
2018-06-18T02:38:54.697Z,1.27
2018-06-18T02:41:27.868Z,1.17
2018-06-18T02:44:00.901Z,1.23
2018-06-18T02:46:33.879Z,1.20
2018-06-18T02:49:07.802Z,1.40
2018-06-18T02:51:40.895Z,1.30
2018-06-18T02:54:13.929Z,1.30
2018-06-18T02:56:56.216Z,1.40
2018-06-18T02:59:29.157Z,1.40
2018-06-18T03:02:02.202Z,1.40
2018-06-18T03:04:35.245Z,1.60
2018-06-18T03:07:08.063Z,1.30
2018-06-18T03:09:41.848Z,1.30
2018-06-18T03:12:15.437Z,1.10
2018-06-18T03:14:48.947Z,1.20
2018-06-18T03:17:21.889Z,1.17
2018-06-18T03:19:58.969Z,1.70
2018-06-18T03:22:36.064Z,1.63
2018-06-18T03:27:19.333Z,1.50
2018-06-18T03:29:53.248Z,1.50
2018-06-18T03:32:28.722Z,1.60
2018-06-18T03:35:01.738Z,2.03
2018-06-18T03:37:34.820Z,1.60
2018-06-18T03:40:07.928Z,1.60
2018-06-18T03:42:41.067Z,1.50
2018-06-18T03:45:18.703Z,1.63
2018-06-18T03:47:51.733Z,2.00
2018-06-18T03:50:24.790Z,1.77
2018-06-18T03:52:57.795Z,2.90
2018-06-18T03:55:43.419Z,3.00
2018-06-18T03:58:16.547Z,3.20
2018-06-18T04:01:06.655Z,2.23
2018-06-18T04:03:44.241Z,1.93
2018-06-18T04:06:21.793Z,1.90
2018-06-18T04:08:59.089Z,1.80
2018-06-18T04:11:36.246Z,1.80
2018-06-18T04:14:09.342Z,2.23
2018-06-18T04:16:42.368Z,3.00
2018-06-18T04:19:15.346Z,3.63
2018-06-18T04:21:48.293Z,3.50
2018-06-18T04:24:21.588Z,3.00
2018-06-18T04:26:54.542Z,3.20
2018-06-18T04:29:27.526Z,2.17
2018-06-18T04:32:00.649Z,1.60
2018-06-18T04:34:41.650Z,1.80
2018-06-18T04:37:14.620Z,2.13
2018-06-18T04:39:47.694Z,1.97
2018-06-18T04:42:24.821Z,2.03
2018-06-18T04:45:01.905Z,2.10
2018-06-18T04:47:39.038Z,1.73
2018-06-18T04:50:16.107Z,1.80
2018-06-18T04:52:49.078Z,2.40
2018-06-18T04:55:22.071Z,2.00
2018-06-18T04:57:58.014Z,2.50
2018-06-18T05:01:33.866Z,3.47
2018-06-18T05:04:06.824Z,2.20
2018-06-18T05:06:39.865Z,2.53
2018-06-18T05:09:21.978Z,1.80
2018-06-18T05:11:54.831Z,2.07
2018-06-18T05:14:27.927Z,1.97
2018-06-18T05:17:00.808Z,2.00
2018-06-18T05:19:33.959Z,2.00
2018-06-18T05:22:06.907Z,2.27
2018-06-18T05:24:39.853Z,2.00
2018-06-18T05:27:15.584Z,2.10
2018-06-18T05:29:48.552Z,1.77
2018-06-18T05:32:21.856Z,2.23
2018-06-18T05:34:54.836Z,2.20
2018-06-18T05:37:36.733Z,2.00
2018-06-18T05:40:09.723Z,2.07
2018-06-18T05:42:42.738Z,2.20
2018-06-18T05:45:16.120Z,2.20
2018-06-18T05:47:48.967Z,2.10
2018-06-18T05:50:21.945Z,2.10
2018-06-18T05:52:55.364Z,2.30
2018-06-18T05:55:28.449Z,2.37
2018-06-18T05:58:01.427Z,2.00
2018-06-18T06:00:34.311Z,2.20
2018-06-18T06:03:07.377Z,2.00
2018-06-18T06:05:40.322Z,2.33
2018-06-18T06:08:13.356Z,2.20
2018-06-18T06:10:46.270Z,2.17
2018-06-18T06:13:19.088Z,2.20
2018-06-18T06:15:52.105Z,2.33
2018-06-18T06:18:25.144Z,2.00
2018-06-18T06:21:04.262Z,2.20
2018-06-18T06:23:37.338Z,2.50
2018-06-18T06:26:10.302Z,1.80
2018-06-18T06:28:43.239Z,1.70
2018-06-18T06:31:16.109Z,1.80
2018-06-18T06:33:49.034Z,1.67
2018-06-18T06:36:22.687Z,1.90
2018-06-18T06:38:55.712Z,1.80
2018-06-18T06:41:29.964Z,1.97
2018-06-18T06:44:02.979Z,1.90
2018-06-18T06:46:36.043Z,1.90
2018-06-18T06:49:08.995Z,1.73
2018-06-18T06:51:41.928Z,1.70
2018-06-18T06:54:15.008Z,1.70
2018-06-18T06:56:47.884Z,2.30
2018-06-18T06:59:20.908Z,1.43
2018-06-18T07:01:53.839Z,1.80
2018-06-18T07:04:26.688Z,1.77
2018-06-18T07:06:59.731Z,2.27
2018-06-18T07:09:32.631Z,2.00
2018-06-18T07:12:05.546Z,2.00
2018-06-18T07:14:38.564Z,2.17
2018-06-18T07:17:11.530Z,2.20
2018-06-18T07:19:44.530Z,2.10
2018-06-18T07:22:17.600Z,2.37
2018-06-18T07:24:50.646Z,2.00
2018-06-18T07:27:23.495Z,2.43
2018-06-18T07:29:56.458Z,2.83
2018-06-18T07:32:29.386Z,2.53
2018-06-18T07:35:02.267Z,2.53
2018-06-18T07:37:35.205Z,2.90
2018-06-18T07:40:08.155Z,2.60
2018-06-18T07:42:41.147Z,2.43
2018-06-18T14:36:02.768Z,2.90
2018-06-18T15:17:46.401Z,1.73
2018-06-18T15:20:20.281Z,2.30
2018-06-18T15:23:04.328Z,2.10
2018-06-18T15:25:45.327Z,2.20
2018-06-18T15:28:18.349Z,2.67
2018-06-18T15:30:51.414Z,2.30
2018-06-18T15:33:24.602Z,2.37
2018-06-18T15:35:58.272Z,2.07
2018-06-18T15:38:31.288Z,2.00
2018-06-18T15:41:04.241Z,2.20
2018-06-18T15:43:38.986Z,2.10
2018-06-18T15:46:11.965Z,2.33
2018-06-18T15:48:45.128Z,2.00
2018-06-18T15:51:19.282Z,2.37
2018-06-18T15:53:53.605Z,2.23
2018-06-18T15:56:26.705Z,2.60
2018-06-18T15:59:00.813Z,2.47
2018-06-18T16:01:33.909Z,2.37
2018-06-18T16:04:07.409Z,2.60
2018-06-18T16:06:40.473Z,2.77
2018-06-18T16:09:13.803Z,2.40
2018-06-18T16:11:46.939Z,2.87
2018-06-18T16:14:20.247Z,2.60
2018-06-18T16:16:53.466Z,2.83
2018-06-18T16:19:28.301Z,2.60
2018-06-18T16:22:02.256Z,2.97
2018-06-18T16:24:35.710Z,2.50
2018-06-18T16:27:08.975Z,2.83
2018-06-18T16:29:42.037Z,2.97
2018-06-18T16:32:15.257Z,2.50
2018-06-18T16:34:48.443Z,2.90
2018-06-18T16:37:22.586Z,2.77
2018-06-18T16:39:57.784Z,2.90
2018-06-18T16:42:33.141Z,2.73
2018-06-18T16:45:08.194Z,2.70
2018-06-18T16:47:45.162Z,2.70
2018-06-18T16:50:19.248Z,2.53
2018-06-18T16:52:53.755Z,2.77
2018-06-18T17:00:43.946Z,3.30
2018-06-18T17:03:18.075Z,3.23
2018-06-18T17:05:53.655Z,2.80
2018-06-18T17:08:26.821Z,3.50
2018-06-18T17:11:00.985Z,3.03
2018-06-18T17:13:36.332Z,3.03
2018-06-18T17:16:09.935Z,2.90
2018-06-18T17:18:43.116Z,3.13
2018-06-18T17:21:20.430Z,3.37
2018-06-18T17:23:55.658Z,3.23
2018-06-18T17:26:30.936Z,2.90
2018-06-18T17:29:04.413Z,3.07
2018-06-18T17:31:41.279Z,2.87
2018-06-18T17:34:15.961Z,3.20
2018-06-18T17:39:31.783Z,2.93
2018-06-18T17:42:05.086Z,3.10
2018-06-18T17:44:38.170Z,3.30
2018-06-18T17:47:11.388Z,2.97
2018-06-18T17:49:44.674Z,3.23
2018-06-18T17:52:17.792Z,3.20
2018-06-18T17:54:55.209Z,3.50
2018-06-18T17:57:28.404Z,3.60
2018-06-18T18:02:39.109Z,3.27
2018-06-18T18:05:13.211Z,3.37
2018-06-18T18:07:46.453Z,3.50
2018-06-18T18:10:19.585Z,3.50
2018-06-18T18:12:52.832Z,3.40
2018-06-18T18:15:25.953Z,3.47
2018-06-18T18:17:58.910Z,3.57
2018-06-18T18:20:33.295Z,3.40
2018-06-18T18:23:06.895Z,3.10
2018-06-18T18:25:41.228Z,3.73
2018-06-18T18:28:15.281Z,3.00
2018-06-18T18:30:49.787Z,3.57
2018-06-18T18:33:23.142Z,3.53
2018-06-18T18:35:57.312Z,3.47
2018-06-18T18:38:32.418Z,3.50
2018-06-18T18:41:08.309Z,3.40
2018-06-18T18:43:43.686Z,3.30
2018-06-18T18:46:17.824Z,3.10
2018-06-18T18:48:50.867Z,3.43
2018-06-18T18:51:24.597Z,3.13
2018-06-18T18:53:59.498Z,3.63
2018-06-18T18:56:43.035Z,3.70
2018-06-18T18:59:24.255Z,3.63
2018-06-18T19:01:59.484Z,3.43
2018-06-18T19:04:43.644Z,3.27
2018-06-18T19:07:16.953Z,3.80
2018-06-18T19:10:03.156Z,3.43
2018-06-18T19:12:36.447Z,6.40
2018-06-18T19:15:10.667Z,3.30
2018-06-18T19:17:43.896Z,2.97
2018-06-18T19:20:20.691Z,2.67
2018-06-18T19:22:53.975Z,2.30
2018-06-18T19:25:27.351Z,2.80
2018-06-18T19:28:00.572Z,2.63
2018-06-18T19:30:34.774Z,2.53
2018-06-18T19:33:25.305Z,2.40
2018-06-18T19:36:01.127Z,3.00
2018-06-18T19:38:35.157Z,3.00
2018-06-18T19:41:08.196Z,3.20
2018-06-18T19:43:41.519Z,3.13
2018-06-18T19:46:22.022Z,2.67
2018-06-18T19:49:03.656Z,3.53
2018-06-18T19:51:36.782Z,2.93
2018-06-18T19:54:14.320Z,2.77
2018-06-18T19:56:47.441Z,3.30
2018-06-18T19:59:20.530Z,3.10
2018-06-18T20:01:53.508Z,2.50
2018-06-18T20:04:26.567Z,2.97
2018-06-18T20:06:59.560Z,3.60
2018-06-18T20:09:32.654Z,3.00
2018-06-18T20:12:05.879Z,3.20
2018-06-18T20:14:39.895Z,2.93
2018-06-18T20:17:13.456Z,3.03
2018-06-18T20:19:46.594Z,3.00
2018-06-18T20:22:21.533Z,2.90
2018-06-18T20:24:55.026Z,2.80
2018-06-18T20:27:28.215Z,2.80
2018-06-18T20:30:01.420Z,2.83
2018-06-18T20:32:35.675Z,2.60
2018-06-18T20:35:13.066Z,2.53
2018-06-18T20:37:46.504Z,2.90
2018-06-18T20:40:19.870Z,2.83
2018-06-18T20:42:53.112Z,2.50
2018-06-18T20:45:26.429Z,3.00
2018-06-18T20:47:59.891Z,2.83
2018-06-18T20:50:33.277Z,2.77
2018-06-18T20:53:06.549Z,2.27
2018-06-18T20:55:39.562Z,2.50
2018-06-18T20:58:13.552Z,2.13
2018-06-18T21:00:46.819Z,2.77
2018-06-18T21:03:20.454Z,2.20
2018-06-18T21:05:53.546Z,2.40
2018-06-18T21:08:26.676Z,2.10
2018-06-18T21:11:00.004Z,2.57
2018-06-18T21:13:33.015Z,2.20
2018-06-18T21:16:06.138Z,2.20
2018-06-18T21:18:40.486Z,2.20
2018-06-18T21:21:17.608Z,2.43
2018-06-18T21:23:50.728Z,1.90
2018-06-18T21:26:23.670Z,2.20
2018-06-18T21:28:56.895Z,1.80
2018-06-18T21:31:29.952Z,1.97
2018-06-18T21:34:02.965Z,2.20
2018-06-18T21:36:35.889Z,1.77
2018-06-18T21:39:12.100Z,1.90
2018-06-18T21:41:45.178Z,2.00
2018-06-18T21:44:22.930Z,1.60
2018-06-18T21:46:55.951Z,1.90
2018-06-18T21:49:28.942Z,1.50
2018-06-18T21:52:02.064Z,1.70
2018-06-18T21:54:35.082Z,1.80
2018-06-18T21:57:08.220Z,1.70
2018-06-18T21:59:41.243Z,1.97
2018-06-18T22:02:14.367Z,1.80
2018-06-18T22:04:47.408Z,1.90
2018-06-18T22:07:20.465Z,1.90
2018-06-18T22:09:53.474Z,2.00
2018-06-18T22:12:27.370Z,2.10
2018-06-18T22:15:00.360Z,1.73
2018-06-18T22:17:33.433Z,2.10
2018-06-18T22:20:06.497Z,2.30
2018-06-18T22:22:39.421Z,2.70
2018-06-18T22:25:12.534Z,2.40
2018-06-18T22:27:45.653Z,2.67
2018-06-18T22:30:19.392Z,2.20
2018-06-18T22:32:52.501Z,2.50
2018-06-18T22:35:25.473Z,2.60
2018-06-18T22:37:58.561Z,2.47
2018-06-18T22:40:31.645Z,2.20
2018-06-18T22:43:04.780Z,2.80
2018-06-18T22:45:37.973Z,2.87
2018-06-18T22:48:10.936Z,2.90
2018-06-18T22:50:43.827Z,3.20
2018-06-18T22:53:17.581Z,3.10
2018-06-18T22:55:50.753Z,2.60
2018-06-18T22:58:23.719Z,3.13
2018-06-18T23:00:58.159Z,2.77
2018-06-18T23:03:31.251Z,2.57
2018-06-18T23:06:04.267Z,2.90
2018-06-18T23:08:37.218Z,2.87
2018-06-18T23:11:10.637Z,2.70
2018-06-18T23:13:45.585Z,2.30
2018-06-18T23:16:19.458Z,2.60
2018-06-18T23:18:52.604Z,2.90
2018-06-18T23:21:25.539Z,2.30
2018-06-18T23:23:58.548Z,2.60
2018-06-18T23:26:31.550Z,2.50
2018-06-18T23:29:07.269Z,2.50
2018-06-18T23:31:40.184Z,2.60
2018-06-18T23:34:14.453Z,2.20
2018-06-18T23:36:47.453Z,2.57
2018-06-18T23:39:20.593Z,2.87
2018-06-18T23:41:56.589Z,2.43
2018-06-18T23:44:30.902Z,2.50
2018-06-18T23:49:46.241Z,2.60
2018-06-18T23:52:19.318Z,2.67
2018-06-18T23:54:52.331Z,2.30
2018-06-18T23:57:25.420Z,2.50
2018-06-18T23:59:58.705Z,2.57
